Time;durP1;ratioP1;P1;durP2;ratioP2;P2;SDS_P1;SDS_P2;PMS_P1;PMS_P2;Temp;Humidity;BMP_temperature;BMP_pressure;BME280_temperature;BME280_humidity;BME280_pressure;Samples;Min_cycle;Max_cycle;Signal;HPM_P1;HPM_P2
2022/04/06 00:01:49;;;;;;;38.20;12.47;;;10.30;99.90;;;;;;5007124;28;20278;-85
2022/04/06 00:04:16;;;;;;;37.10;12.67;;;10.20;99.90;;;;;;5002111;28;20317;-85
2022/04/06 00:06:43;;;;;;;32.07;11.73;;;10.20;99.90;;;;;;4998915;28;20378;-85
2022/04/06 00:09:17;;;;;;;37.07;12.53;;;10.20;99.90;;;;;;4996096;28;20214;-85
2022/04/06 00:11:44;;;;;;;35.47;12.07;;;10.20;99.90;;;;;;5006954;28;20592;-84
2022/04/06 00:14:12;;;;;;;35.23;12.43;;;10.20;99.90;;;;;;4993457;28;20262;-85
2022/04/06 00:16:39;;;;;;;24.83;11.70;;;10.20;99.90;;;;;;4998729;28;20225;-83
2022/04/06 00:19:06;;;;;;;30.67;13.03;;;10.20;99.90;;;;;;4998815;28;20209;-84
2022/04/06 00:21:33;;;;;;;34.97;14.93;;;10.20;99.90;;;;;;4996682;28;20605;-84
2022/04/06 00:23:59;;;;;;;37.03;12.70;;;10.10;99.90;;;;;;4999028;28;20249;-84
2022/04/06 00:26:26;;;;;;;26.80;11.13;;;10.10;99.90;;;;;;4992204;28;20317;-85
2022/04/06 00:28:53;;;;;;;29.37;12.23;;;10.10;99.90;;;;;;4997208;28;20301;-84
2022/04/06 00:31:20;;;;;;;34.30;12.93;;;10.20;99.90;;;;;;5004889;28;20215;-84
2022/04/06 00:33:47;;;;;;;33.30;11.97;;;10.20;99.90;;;;;;5003940;28;20234;-85
2022/04/06 00:36:14;;;;;;;38.83;10.80;;;10.20;99.90;;;;;;5004953;28;20217;-85
2022/04/06 00:38:41;;;;;;;30.50;11.37;;;10.20;99.90;;;;;;5021093;28;20252;-84
2022/04/06 00:41:07;;;;;;;31.57;11.67;;;10.20;99.90;;;;;;4997455;28;20304;-83
2022/04/06 00:43:34;;;;;;;27.63;10.90;;;10.20;99.90;;;;;;5000085;28;20748;-84
2022/04/06 00:46:01;;;;;;;37.10;11.13;;;10.20;99.90;;;;;;5011673;28;20221;-87
2022/04/06 00:48:28;;;;;;;26.80;11.37;;;10.20;99.90;;;;;;4996928;28;20723;-85
2022/04/06 00:50:55;;;;;;;24.47;11.20;;;10.20;99.90;;;;;;5002398;28;20210;-85
2022/04/06 00:53:24;;;;;;;25.87;9.97;;;10.20;99.90;;;;;;5004043;28;20729;-86
2022/04/06 00:55:52;;;;;;;27.70;11.37;;;10.20;99.90;;;;;;4999406;28;20346;-83
2022/04/06 00:58:23;;;;;;;27.13;11.33;;;10.30;99.90;;;;;;4996319;28;20206;-84
2022/04/06 01:00:50;;;;;;;26.37;11.47;;;10.30;99.90;;;;;;5013999;28;20245;-86
2022/04/06 01:03:16;;;;;;;30.33;10.30;;;10.30;99.90;;;;;;4993679;28;20733;-85
2022/04/06 01:05:43;;;;;;;23.97;9.50;;;10.20;99.90;;;;;;5013574;28;20326;-85
2022/04/06 01:08:11;;;;;;;29.40;10.20;;;10.20;99.90;;;;;;5002712;28;20217;-83
2022/04/06 01:10:38;;;;;;;26.43;9.63;;;10.30;99.90;;;;;;4994942;28;20270;-85
2022/04/06 01:13:06;;;;;;;24.57;9.40;;;10.30;99.90;;;;;;5004723;28;20308;-85
2022/04/06 01:15:33;;;;;;;27.80;9.90;;;10.30;99.90;;;;;;4997498;28;20242;-83
2022/04/06 01:18:01;;;;;;;27.60;10.53;;;10.30;99.90;;;;;;4993900;28;20217;-86
2022/04/06 01:20:29;;;;;;;26.00;9.50;;;10.30;99.90;;;;;;5012620;28;20234;-85
2022/04/06 01:22:56;;;;;;;26.90;10.10;;;10.20;99.90;;;;;;5001739;28;20215;-85
2022/04/06 01:25:26;;;;;;;24.47;10.00;;;10.30;99.90;;;;;;4995944;28;20263;-85
2022/04/06 01:27:53;;;;;;;23.87;9.03;;;10.30;99.90;;;;;;4998138;28;20209;-84
2022/04/06 01:30:20;;;;;;;25.83;9.90;;;10.20;99.90;;;;;;5000745;28;20329;-87
2022/04/06 01:32:46;;;;;;;24.53;8.90;;;10.20;99.90;;;;;;5012669;28;20206;-86
2022/04/06 01:35:13;;;;;;;23.60;9.47;;;10.20;99.90;;;;;;4990851;28;20664;-84
2022/04/06 01:37:40;;;;;;;31.37;10.70;;;10.20;99.90;;;;;;4998054;28;20313;-86
2022/04/06 01:40:07;;;;;;;24.67;10.00;;;10.20;99.90;;;;;;4996556;28;20215;-86
2022/04/06 01:42:34;;;;;;;24.67;10.10;;;10.20;99.90;;;;;;4999353;28;20293;-86
2022/04/06 01:45:01;;;;;;;30.93;10.57;;;10.20;99.90;;;;;;5004346;28;20276;-84
2022/04/06 01:47:28;;;;;;;22.27;9.53;;;10.30;99.90;;;;;;4995842;28;20596;-86
2022/04/06 01:52:40;;;;;;;25.40;10.37;;;10.30;99.90;;;;;;4997018;28;20670;-85
2022/04/06 01:55:12;;;;;;;33.50;10.80;;;10.20;99.90;;;;;;4995764;28;20243;-85
2022/04/06 01:57:40;;;;;;;28.27;10.03;;;10.20;99.90;;;;;;4991638;28;20281;-84
2022/04/06 02:00:13;;;;;;;27.27;10.30;;;10.20;99.90;;;;;;4997917;28;20297;-84
2022/04/06 02:02:40;;;;;;;27.77;9.83;;;10.20;99.90;;;;;;4995781;28;20316;-86
2022/04/06 02:05:08;;;;;;;29.10;10.43;;;10.20;99.90;;;;;;5008006;28;20222;-85
2022/04/06 02:07:35;;;;;;;29.17;11.30;;;10.20;99.90;;;;;;4993385;28;20317;-86
2022/04/06 02:10:02;;;;;;;23.37;10.30;;;10.20;99.90;;;;;;5002757;28;20894;-85
2022/04/06 02:12:31;;;;;;;26.80;11.40;;;10.30;99.90;;;;;;4999020;28;20218;-86
2022/04/06 02:14:58;;;;;;;29.93;10.97;;;10.20;99.90;;;;;;4996900;28;20245;-84
2022/04/06 02:17:29;;;;;;;28.53;13.50;;;10.00;99.90;;;;;;5011846;28;20289;-85
2022/04/06 02:19:56;;;;;;;27.40;11.00;;;10.30;99.90;;;;;;5007554;28;20208;-88
2022/04/06 02:22:23;;;;;;;28.93;10.47;;;10.30;99.90;;;;;;5000825;28;20226;-85
2022/04/06 02:24:50;;;;;;;28.60;11.73;;;10.20;99.90;;;;;;4998828;28;20214;-85
2022/04/06 02:27:17;;;;;;;30.93;10.37;;;10.20;99.90;;;;;;5009016;28;20253;-86
2022/04/06 02:29:43;;;;;;;23.33;9.73;;;10.20;99.90;;;;;;4997576;28;20283;-85
2022/04/06 02:32:11;;;;;;;30.97;10.87;;;10.20;99.90;;;;;;5020164;28;20234;-85
2022/04/06 02:34:39;;;;;;;22.43;9.80;;;10.20;99.90;;;;;;4996679;28;20238;-85
2022/04/06 02:37:07;;;;;;;25.73;10.47;;;10.20;99.90;;;;;;5000269;28;20241;-86
2022/04/06 02:39:34;;;;;;;21.63;8.93;;;10.20;99.90;;;;;;4995196;28;20285;-85
2022/04/06 02:42:02;;;;;;;18.03;8.47;;;10.20;99.90;;;;;;5000571;28;20205;-88
2022/04/06 02:44:32;;;;;;;30.30;10.23;;;10.20;99.90;;;;;;5008397;28;20234;-85
2022/04/06 02:46:59;;;;;;;28.57;9.80;;;10.20;99.90;;;;;;4996234;28;20206;-88
2022/04/06 02:49:27;;;;;;;24.57;10.37;;;10.20;99.90;;;;;;4999823;28;20291;-86
2022/04/06 02:51:54;;;;;;;26.13;9.90;;;10.20;99.90;;;;;;4999517;28;20231;-86
2022/04/06 02:54:20;;;;;;;24.53;9.63;;;10.30;99.90;;;;;;5006413;28;20670;-86
2022/04/06 02:56:48;;;;;;;23.13;9.27;;;10.10;99.90;;;;;;5013229;28;20204;-88
2022/04/06 02:59:15;;;;;;;20.97;8.33;;;10.20;99.90;;;;;;4998621;28;20336;-87
2022/04/06 03:01:45;;;;;;;26.93;10.00;;;10.20;99.90;;;;;;4996409;28;20206;-87
2022/04/06 03:04:12;;;;;;;24.77;8.67;;;10.20;99.90;;;;;;5007517;28;20657;-87
2022/04/06 03:06:40;;;;;;;25.10;8.90;;;10.20;99.90;;;;;;5000716;28;20534;-87
2022/04/06 03:09:07;;;;;;;23.70;8.40;;;10.20;99.90;;;;;;4999116;28;20674;-85
2022/04/06 03:11:36;;;;;;;22.33;8.60;;;10.20;99.90;;;;;;5000007;28;20241;-85
2022/04/06 03:14:03;;;;;;;20.83;8.27;;;10.20;99.90;;;;;;5002739;28;20237;-87
2022/04/06 03:16:30;;;;;;;27.23;9.17;;;10.20;99.90;;;;;;5010567;28;20241;-86
2022/04/06 03:18:57;;;;;;;21.83;8.03;;;10.10;99.90;;;;;;4997546;28;20246;-86
2022/04/06 03:21:27;;;;;;;16.47;7.50;;;10.10;99.90;;;;;;5017608;28;20226;-87
2022/04/06 03:23:54;;;;;;;21.30;7.80;;;10.10;99.90;;;;;;5017640;28;20216;-86
2022/04/06 03:26:20;;;;;;;23.40;8.13;;;10.00;99.90;;;;;;5003659;28;20241;-86
2022/04/06 03:28:47;;;;;;;19.17;7.17;;;10.00;99.90;;;;;;5000084;28;21340;-87
2022/04/06 03:31:14;;;;;;;17.73;6.53;;;10.10;99.90;;;;;;5009821;28;20771;-85
2022/04/06 03:33:41;;;;;;;17.03;6.40;;;10.00;99.90;;;;;;4995313;28;20703;-87
2022/04/06 03:36:08;;;;;;;13.47;6.30;;;10.00;99.90;;;;;;4999598;28;20243;-84
2022/04/06 03:38:35;;;;;;;17.40;6.13;;;10.10;99.90;;;;;;5007682;28;20239;-86
2022/04/06 03:41:02;;;;;;;16.70;5.57;;;10.00;99.90;;;;;;5002170;28;20308;-86
2022/04/06 03:43:29;;;;;;;16.33;5.97;;;9.90;99.90;;;;;;5003161;28;20202;-87
2022/04/06 03:45:56;;;;;;;18.73;6.37;;;10.00;99.90;;;;;;5002334;28;20205;-85
2022/04/06 03:48:23;;;;;;;17.83;5.43;;;9.90;99.90;;;;;;4999650;28;20216;-86
2022/04/06 03:50:50;;;;;;;15.70;5.60;;;9.90;99.90;;;;;;5000325;28;20362;-85
2022/04/06 03:53:18;;;;;;;13.33;4.97;;;9.90;99.90;;;;;;4999409;28;20719;-86
2022/04/06 03:55:45;;;;;;;18.43;5.53;;;10.00;99.90;;;;;;4996032;28;20636;-87
2022/04/06 03:58:13;;;;;;;12.70;4.97;;;10.00;99.90;;;;;;4997352;28;20209;-87
2022/04/06 04:00:40;;;;;;;10.97;4.57;;;9.90;99.90;;;;;;5002807;28;20229;-86
2022/04/06 04:03:06;;;;;;;14.07;5.00;;;9.90;99.90;;;;;;5000975;28;20230;-86
2022/04/06 04:05:34;;;;;;;11.37;4.50;;;9.90;99.90;;;;;;4997493;28;20234;-85
2022/04/06 04:08:02;;;;;;;12.63;3.70;;;9.90;99.90;;;;;;5006836;28;20235;-86
2022/04/06 04:10:29;;;;;;;11.90;5.33;;;9.80;99.90;;;;;;4994668;28;21289;-84
2022/04/06 04:12:56;;;;;;;14.00;4.63;;;9.90;99.90;;;;;;5004706;28;20579;-84
2022/04/06 04:15:23;;;;;;;9.70;3.90;;;9.80;99.90;;;;;;5005613;28;20246;-85
2022/04/06 04:17:50;;;;;;;15.67;3.73;;;9.90;99.90;;;;;;4998816;28;20242;-85
2022/04/06 04:20:17;;;;;;;6.77;3.73;;;9.80;99.90;;;;;;5000971;28;20211;-85
2022/04/06 04:22:44;;;;;;;11.07;3.67;;;9.80;99.90;;;;;;4996717;28;20250;-86
2022/04/06 04:25:12;;;;;;;14.87;4.40;;;9.90;99.90;;;;;;5000308;28;20205;-85
2022/04/06 04:27:39;;;;;;;10.37;3.40;;;9.80;99.90;;;;;;5003001;28;20229;-85
2022/04/06 04:30:07;;;;;;;11.70;3.80;;;9.70;99.90;;;;;;5000908;28;20214;-86
2022/04/06 04:32:34;;;;;;;9.50;3.10;;;9.80;99.90;;;;;;5003951;28;20211;-85
2022/04/06 04:35:05;;;;;;;15.90;4.03;;;9.80;99.90;;;;;;5002238;28;20225;-86
2022/04/06 04:37:33;;;;;;;6.43;3.43;;;9.70;99.90;;;;;;4994430;28;20234;-84
2022/04/06 04:40:00;;;;;;;17.60;3.80;;;9.70;99.90;;;;;;5002914;28;20205;-86
2022/04/06 04:42:26;;;;;;;10.37;3.07;;;9.80;99.90;;;;;;5000390;28;20266;-84
2022/04/06 04:44:53;;;;;;;9.90;3.40;;;9.70;99.90;;;;;;5005752;28;20267;-86
2022/04/06 04:47:20;;;;;;;7.53;2.87;;;9.70;99.90;;;;;;5004845;28;20306;-85
2022/04/06 04:49:47;;;;;;;8.93;3.33;;;9.60;99.90;;;;;;4996210;28;20222;-85
2022/04/06 04:52:14;;;;;;;8.87;3.67;;;9.60;99.90;;;;;;4999138;28;20230;-86
2022/04/06 04:54:41;;;;;;;9.10;3.33;;;9.70;99.90;;;;;;4999189;28;20299;-87
2022/04/06 04:57:08;;;;;;;6.57;2.40;;;9.60;99.90;;;;;;5001159;28;20628;-84
2022/04/06 04:59:35;;;;;;;12.70;3.23;;;9.60;99.90;;;;;;4989089;28;20308;-85
2022/04/06 05:02:02;;;;;;;8.30;2.70;;;9.70;99.90;;;;;;5002650;28;20209;-85
2022/04/06 05:04:28;;;;;;;6.57;2.80;;;9.60;99.90;;;;;;5005484;28;20219;-86
2022/04/06 05:06:55;;;;;;;9.90;3.63;;;9.50;99.90;;;;;;5002005;28;20219;-86
2022/04/06 05:09:22;;;;;;;10.90;2.97;;;9.50;99.90;;;;;;4997369;28;20274;-84
2022/04/06 05:11:49;;;;;;;7.20;2.37;;;9.50;99.90;;;;;;5003315;28;20241;-86
2022/04/06 05:14:16;;;;;;;9.70;2.80;;;9.50;99.90;;;;;;5003415;28;20201;-85
2022/04/06 05:16:43;;;;;;;9.93;3.00;;;9.50;99.90;;;;;;5007237;28;20620;-85
2022/04/06 05:19:09;;;;;;;10.53;2.77;;;9.50;99.90;;;;;;4998017;28;20265;-86
2022/04/06 05:21:36;;;;;;;10.47;2.77;;;9.60;99.90;;;;;;4999636;28;20217;-85
2022/04/06 05:24:04;;;;;;;9.50;2.53;;;9.50;99.90;;;;;;4998092;28;20196;-85
2022/04/06 05:26:38;;;;;;;8.73;3.87;;;9.50;99.90;;;;;;5000890;28;20518;-86
2022/04/06 05:29:05;;;;;;;6.20;2.90;;;9.50;99.90;;;;;;5007999;28;20692;-86
2022/04/06 05:31:32;;;;;;;9.47;3.17;;;9.50;99.90;;;;;;5002363;28;20667;-85
2022/04/06 05:33:59;;;;;;;11.00;4.80;;;9.50;99.90;;;;;;5004194;28;20200;-86
2022/04/06 05:36:28;;;;;;;11.43;3.87;;;9.40;99.90;;;;;;5006449;28;20261;-85
2022/04/06 05:38:56;;;;;;;8.80;3.10;;;9.40;99.90;;;;;;5001052;28;20301;-86
2022/04/06 05:41:23;;;;;;;8.33;3.23;;;9.40;99.90;;;;;;4999397;28;20220;-86
2022/04/06 05:43:50;;;;;;;12.53;3.83;;;9.40;99.90;;;;;;5013613;28;20243;-85
2022/04/06 05:46:17;;;;;;;10.60;3.80;;;9.40;99.90;;;;;;4999727;28;20358;-85
2022/04/06 05:48:44;;;;;;;9.60;3.20;;;9.50;99.90;;;;;;5013723;28;20240;-87
2022/04/06 05:51:11;;;;;;;12.43;4.30;;;9.60;99.90;;;;;;4998848;28;20543;-89
2022/04/06 05:53:38;;;;;;;11.77;3.37;;;9.80;99.90;;;;;;4994449;28;20206;-84
2022/04/06 05:56:05;;;;;;;11.13;3.17;;;9.80;99.90;;;;;;5004292;28;20719;-86
2022/04/06 05:58:32;;;;;;;9.47;3.70;;;9.70;99.90;;;;;;5007444;28;20268;-85
2022/04/06 06:00:59;;;;;;;8.67;3.33;;;9.70;99.90;;;;;;5001968;28;20716;-86
2022/04/06 06:03:26;;;;;;;9.53;3.03;;;9.70;99.90;;;;;;4997292;28;20216;-84
2022/04/06 06:05:53;;;;;;;8.03;3.30;;;9.70;99.90;;;;;;4998866;28;20216;-86
2022/04/06 06:08:20;;;;;;;9.63;4.03;;;9.70;99.90;;;;;;5012083;28;20248;-86
2022/04/06 06:10:47;;;;;;;12.17;3.77;;;9.80;99.90;;;;;;4996219;28;20222;-87
2022/04/06 06:13:14;;;;;;;15.33;4.57;;;9.70;99.90;;;;;;4997389;28;20317;-85
2022/04/06 06:15:41;;;;;;;7.37;3.53;;;9.70;99.90;;;;;;5017661;28;20268;-87
2022/04/06 06:18:08;;;;;;;12.47;4.27;;;9.80;99.90;;;;;;5005220;28;20206;-86
2022/04/06 06:20:35;;;;;;;14.50;4.17;;;9.70;99.90;;;;;;5011174;28;20218;-83
2022/04/06 06:23:02;;;;;;;13.27;4.53;;;9.80;99.90;;;;;;5013183;28;20642;-84
2022/04/06 06:25:30;;;;;;;10.00;4.90;;;9.80;99.90;;;;;;5011059;28;20207;-86
2022/04/06 06:27:57;;;;;;;13.00;5.57;;;9.80;99.90;;;;;;5010439;28;20203;-85
2022/04/06 06:30:26;;;;;;;14.10;5.97;;;9.90;99.90;;;;;;5006669;28;20215;-85
2022/04/06 06:32:54;;;;;;;11.77;5.47;;;9.90;99.90;;;;;;5002645;28;20206;-85
2022/04/06 06:35:23;;;;;;;16.83;7.00;;;9.90;99.90;;;;;;4997288;28;20226;-85
2022/04/06 06:37:53;;;;;;;15.60;5.80;;;9.90;99.90;;;;;;5001898;28;20230;-84
2022/04/06 06:40:22;;;;;;;14.23;6.43;;;9.90;99.90;;;;;;5000860;28;20222;-86
2022/04/06 06:42:50;;;;;;;17.03;6.47;;;10.00;99.90;;;;;;4999031;28;20214;-86
2022/04/06 06:45:18;;;;;;;14.43;7.40;;;9.90;99.90;;;;;;4993827;28;20662;-84
2022/04/06 06:47:46;;;;;;;11.27;6.20;;;9.90;99.90;;;;;;4998464;28;20269;-83
2022/04/06 06:50:14;;;;;;;16.90;6.13;;;9.90;99.90;;;;;;4998525;28;20623;-83
2022/04/06 06:52:41;;;;;;;19.37;8.23;;;10.00;99.90;;;;;;5001584;28;20219;-86
2022/04/06 06:55:14;;;;;;;17.13;6.03;;;10.00;99.90;;;;;;5001205;28;20488;-84
2022/04/06 06:57:41;;;;;;;17.73;7.40;;;10.10;99.90;;;;;;4991787;28;20877;-85
2022/04/06 07:00:11;;;;;;;14.73;6.83;;;10.10;99.90;;;;;;4998798;28;20240;-84
2022/04/06 07:02:40;;;;;;;14.37;6.87;;;10.10;99.90;;;;;;4999649;28;20320;-84
2022/04/06 07:05:08;;;;;;;17.20;6.53;;;10.10;99.90;;;;;;5002665;28;20215;-85
2022/04/06 07:07:54;;;;;;;20.60;7.10;;;10.20;99.90;;;;;;5014482;28;20214;-84
2022/04/06 07:10:23;;;;;;;20.07;6.43;;;10.20;99.90;;;;;;5014736;28;20351;-83
2022/04/06 07:12:50;;;;;;;14.23;5.93;;;10.30;99.90;;;;;;5009743;28;20215;-82
2022/04/06 07:15:18;;;;;;;8.73;5.40;;;10.20;99.90;;;;;;4998841;28;20270;-84
2022/04/06 07:17:49;;;;;;;9.60;5.50;;;10.30;99.90;;;;;;4997369;28;22049;-83
2022/04/06 07:20:16;;;;;;;12.23;4.77;;;10.30;99.90;;;;;;5000733;28;20661;-87
2022/04/06 07:22:42;;;;;;;8.60;4.70;;;10.40;99.90;;;;;;4996936;28;20308;-85
2022/04/06 07:25:09;;;;;;;13.13;4.47;;;10.30;99.90;;;;;;4999896;28;20310;-84
2022/04/06 07:27:37;;;;;;;16.20;4.73;;;10.30;99.90;;;;;;5002372;28;20218;-84
2022/04/06 07:30:06;;;;;;;11.60;4.43;;;10.40;99.90;;;;;;5008162;28;20292;-85
2022/04/06 07:32:33;;;;;;;11.07;4.23;;;10.30;99.90;;;;;;5001704;28;20671;-86
2022/04/06 07:35:00;;;;;;;12.60;3.63;;;10.50;99.90;;;;;;4996483;28;20203;-86
2022/04/06 07:37:34;;;;;;;7.50;3.50;;;10.40;99.90;;;;;;5003326;28;20226;-88
2022/04/06 07:40:01;;;;;;;9.63;2.80;;;10.50;99.90;;;;;;4995569;28;20281;-83
2022/04/06 07:42:28;;;;;;;11.53;2.80;;;10.50;99.90;;;;;;5016829;28;20257;-88
2022/04/06 07:44:56;;;;;;;6.53;2.53;;;10.70;99.90;;;;;;4998997;28;20416;-89
2022/04/06 07:47:30;;;;;;;12.33;2.33;;;10.70;99.90;;;;;;5001790;28;20218;-86
2022/04/06 07:49:58;;;;;;;8.30;3.13;;;10.80;99.90;;;;;;5006614;28;20210;-89
2022/04/06 07:52:25;;;;;;;8.20;2.23;;;10.90;99.90;;;;;;5006218;28;20268;-86
2022/04/06 07:54:52;;;;;;;5.63;2.13;;;10.90;99.90;;;;;;5004098;28;20214;-86
2022/04/06 07:57:26;;;;;;;8.83;2.50;;;10.90;99.90;;;;;;5004880;28;20642;-84
2022/04/06 07:59:55;;;;;;;7.87;2.30;;;11.00;99.90;;;;;;4999737;28;20207;-88
2022/04/06 08:02:22;;;;;;;9.33;2.43;;;10.90;99.90;;;;;;5004597;28;20199;-85
2022/04/06 08:04:50;;;;;;;6.50;2.60;;;11.00;99.90;;;;;;5005482;28;20265;-87
2022/04/06 08:07:17;;;;;;;7.17;2.93;;;11.20;99.90;;;;;;5003852;28;20218;-85
2022/04/06 08:09:44;;;;;;;5.97;2.17;;;11.30;99.90;;;;;;5000298;28;20211;-85
2022/04/06 08:12:11;;;;;;;8.83;2.10;;;11.30;99.90;;;;;;5004812;28;20199;-89
2022/04/06 08:14:38;;;;;;;9.00;2.33;;;11.30;99.90;;;;;;5001135;28;20250;-85
2022/04/06 08:17:05;;;;;;;8.67;2.50;;;11.20;99.90;;;;;;5004129;28;20234;-86
2022/04/06 08:19:32;;;;;;;5.47;2.27;;;11.30;99.90;;;;;;5005184;28;20286;-87
2022/04/06 08:21:58;;;;;;;8.77;2.60;;;11.30;99.90;;;;;;4997406;28;20219;-88
2022/04/06 08:24:27;;;;;;;4.50;2.23;;;11.10;99.90;;;;;;5003776;28;20536;-82
2022/04/06 08:26:55;;;;;;;10.40;2.60;;;11.10;99.90;;;;;;5003986;28;20327;-85
2022/04/06 08:29:22;;;;;;;8.17;2.63;;;11.00;99.90;;;;;;5008978;28;20536;-88
2022/04/06 08:31:49;;;;;;;5.40;2.20;;;11.00;99.90;;;;;;5002463;28;20210;-86
2022/04/06 08:34:16;;;;;;;7.73;2.30;;;11.00;99.90;;;;;;5005008;28;20214;-85
2022/04/06 08:36:49;;;;;;;12.80;4.30;;;11.00;99.90;;;;;;5003528;28;20241;-86
2022/04/06 08:39:17;;;;;;;9.27;2.73;;;11.10;99.90;;;;;;5001449;28;20671;-87
2022/04/06 08:42:16;;;;;;;7.90;2.47;;;11.00;99.90;;;;;;5000217;28;20231;-86
2022/04/06 08:45:42;;;;;;;7.17;2.37;;;11.10;99.90;;;;;;5014920;28;20203;-85
2022/04/06 08:48:10;;;;;;;7.67;2.80;;;11.20;99.90;;;;;;4997868;28;20599;-89
2022/04/06 08:50:38;;;;;;;7.63;2.80;;;11.20;99.90;;;;;;5006995;28;20666;-85
2022/04/06 08:53:07;;;;;;;7.97;3.10;;;11.20;99.90;;;;;;5017657;28;20254;-86
2022/04/06 08:55:41;;;;;;;8.13;3.20;;;11.20;99.90;;;;;;5004186;28;20222;-89
2022/04/06 08:58:07;;;;;;;9.60;3.17;;;11.10;99.90;;;;;;5009374;28;20202;-89
2022/04/06 09:00:41;;;;;;;6.20;2.73;;;11.10;99.90;;;;;;5010810;28;20210;-88
2022/04/06 09:03:13;;;;;;;7.33;3.37;;;11.00;99.90;;;;;;5004649;28;20522;-87
2022/04/06 09:05:58;;;;;;;7.10;3.17;;;10.80;99.90;;;;;;5001598;28;20206;-87
2022/04/06 09:08:48;;;;;;;8.43;3.50;;;10.80;99.90;;;;;;5005793;28;20706;-88
2022/04/06 09:11:20;;;;;;;8.87;4.30;;;10.80;99.90;;;;;;5005578;28;20217;-88
2022/04/06 09:14:00;;;;;;;6.90;3.43;;;10.80;99.90;;;;;;4999769;28;20206;-85
2022/04/06 09:16:29;;;;;;;8.97;3.30;;;10.80;99.90;;;;;;5006367;28;20234;-88
2022/04/06 09:18:57;;;;;;;8.67;4.03;;;10.60;99.90;;;;;;5009830;28;20206;-88
2022/04/06 09:21:29;;;;;;;11.57;3.97;;;10.60;99.90;;;;;;5002099;28;20606;-91
2022/04/06 09:23:59;;;;;;;7.80;3.80;;;10.60;99.90;;;;;;5005390;28;20234;-89
2022/04/06 09:26:28;;;;;;;9.47;3.87;;;10.50;99.90;;;;;;5005800;28;20293;-87
2022/04/06 09:28:55;;;;;;;9.27;4.30;;;10.50;99.90;;;;;;5009593;28;20709;-87
2022/04/06 09:31:38;;;;;;;7.87;4.23;;;10.50;99.90;;;;;;5009847;28;20232;-89
2022/04/06 09:34:12;;;;;;;7.67;4.40;;;10.50;99.90;;;;;;5012935;28;20211;-89
2022/04/06 09:36:40;;;;;;;12.77;4.53;;;10.40;99.90;;;;;;4998341;28;20234;-87
2022/04/06 09:39:09;;;;;;;10.23;4.60;;;10.40;99.90;;;;;;5006747;28;20214;-89
2022/04/06 09:42:03;;;;;;;7.90;4.77;;;10.40;99.90;;;;;;5003146;28;20203;-86
2022/04/06 09:50:23;;;;;;;8.80;5.07;;;10.40;99.90;;;;;;5008514;28;20380;-91
2022/04/06 09:52:53;;;;;;;16.40;5.73;;;10.50;99.90;;;;;;5012068;28;20223;-89
2022/04/06 09:55:23;;;;;;;13.20;5.20;;;10.40;99.90;;;;;;5014485;28;20221;-89
2022/04/06 09:57:58;;;;;;;10.23;5.53;;;10.50;99.90;;;;;;5021859;28;20190;-88
2022/04/06 10:00:31;;;;;;;13.47;5.63;;;10.50;99.90;;;;;;5017743;28;20215;-85
2022/04/06 10:03:03;;;;;;;9.27;5.13;;;10.40;99.90;;;;;;5003650;28;20207;-86
2022/04/06 10:05:35;;;;;;;16.17;5.70;;;10.40;99.90;;;;;;5006552;28;20238;-89
2022/04/06 10:08:09;;;;;;;10.83;4.93;;;10.40;99.90;;;;;;5008335;28;20280;-86
2022/04/06 10:10:41;;;;;;;13.27;6.00;;;10.40;99.90;;;;;;5011783;28;20218;-89
2022/04/06 10:13:08;;;;;;;11.53;5.93;;;10.40;99.90;;;;;;5000567;28;20195;-87
2022/04/06 10:15:57;;;;;;;10.50;5.60;;;10.50;99.90;;;;;;5002037;28;20513;-86
2022/04/06 10:18:33;;;;;;;9.43;5.70;;;10.40;99.90;;;;;;5003751;28;20276;-85
2022/04/06 10:21:34;;;;;;;12.90;5.83;;;10.50;99.90;;;;;;5002533;28;20283;-83
2022/04/06 10:24:17;;;;;;;8.60;4.97;;;10.50;99.90;;;;;;5015520;28;20214;-89
2022/04/06 10:26:46;;;;;;;9.57;5.40;;;10.50;99.90;;;;;;5005756;28;20234;-84
2022/04/06 10:29:13;;;;;;;12.73;6.43;;;10.50;99.90;;;;;;5001212;28;20207;-85
2022/04/06 10:31:40;;;;;;;14.87;7.50;;;10.60;99.90;;;;;;5000592;28;20624;-89
2022/04/06 10:34:22;;;;;;;10.47;6.30;;;10.50;99.90;;;;;;5003225;28;20602;-88
2022/04/06 10:37:18;;;;;;;10.47;6.70;;;10.50;99.90;;;;;;5000312;28;20576;-88
2022/04/06 10:39:51;;;;;;;13.37;7.63;;;10.40;99.90;;;;;;4997962;28;20691;-88
2022/04/06 10:42:41;;;;;;;17.47;7.67;;;10.50;99.90;;;;;;5010263;28;20263;-90
2022/04/06 10:45:29;;;;;;;15.30;7.40;;;10.30;99.90;;;;;;5002293;28;20230;-88
2022/04/06 10:48:19;;;;;;;17.20;8.40;;;10.20;99.90;;;;;;4998791;28;20257;-87
2022/04/06 10:50:48;;;;;;;15.37;8.57;;;10.10;99.90;;;;;;5005097;28;20215;-86
2022/04/06 10:53:18;;;;;;;13.63;8.03;;;10.10;99.90;;;;;;5006140;28;20264;-87
2022/04/06 10:56:17;;;;;;;16.60;8.80;;;10.00;99.90;;;;;;5009458;28;20221;-89
2022/04/06 10:58:56;;;;;;;14.63;8.80;;;10.00;99.90;;;;;;5006695;28;20224;-88
2022/04/06 11:01:30;;;;;;;17.47;8.43;;;10.10;99.90;;;;;;4999703;28;20217;-88
2022/04/06 11:04:05;;;;;;;13.83;8.60;;;10.10;99.90;;;;;;5009073;28;20208;-88
2022/04/06 11:06:45;;;;;;;14.63;8.20;;;10.10;99.90;;;;;;5001687;28;20237;-87
2022/04/06 11:12:33;;;;;;;11.57;7.50;;;10.00;99.90;;;;;;5001352;28;20237;-87
2022/04/06 11:14:59;;;;;;;15.33;8.33;;;10.10;99.90;;;;;;4994693;28;20235;-86
2022/04/06 11:17:34;;;;;;;16.30;8.13;;;10.10;99.90;;;;;;5002974;28;20303;-82
2022/04/06 11:20:06;;;;;;;18.43;9.13;;;10.10;99.90;;;;;;5002038;28;20201;-89
2022/04/06 11:22:34;;;;;;;20.03;9.13;;;10.10;99.90;;;;;;5003004;28;20230;-88
2022/04/06 11:25:01;;;;;;;20.97;8.90;;;10.20;99.90;;;;;;5005776;28;20207;-86
2022/04/06 11:27:33;;;;;;;13.70;8.70;;;10.20;99.90;;;;;;5007758;28;20369;-89
2022/04/06 11:30:05;;;;;;;20.07;8.87;;;10.20;99.90;;;;;;4998262;28;20199;-88
2022/04/06 11:32:33;;;;;;;17.20;8.93;;;10.30;99.90;;;;;;5001258;28;20622;-89
2022/04/06 11:35:07;;;;;;;14.60;9.13;;;10.30;99.90;;;;;;5002003;28;20572;-87
2022/04/06 11:37:42;;;;;;;15.30;8.57;;;10.40;99.90;;;;;;5019524;28;20653;-89
2022/04/06 11:40:10;;;;;;;15.30;8.90;;;10.50;99.90;;;;;;5008209;28;20202;-86
2022/04/06 11:42:38;;;;;;;16.73;9.03;;;10.50;99.90;;;;;;5007554;28;20206;-87
2022/04/06 11:45:07;;;;;;;13.03;7.93;;;10.40;99.90;;;;;;5006471;28;20207;-86
2022/04/06 11:47:36;;;;;;;16.30;8.53;;;10.60;99.90;;;;;;5006318;28;20277;-88
2022/04/06 11:50:06;;;;;;;15.17;9.30;;;10.60;99.90;;;;;;5006572;28;20216;-88
2022/04/06 11:52:34;;;;;;;16.03;8.30;;;10.60;99.90;;;;;;5008171;28;20233;-87
2022/04/06 11:55:01;;;;;;;15.27;9.03;;;10.60;99.90;;;;;;5007810;28;20203;-88
2022/04/06 11:57:36;;;;;;;13.63;8.70;;;10.60;99.90;;;;;;4994805;28;20244;-85
2022/04/06 12:00:11;;;;;;;14.77;8.83;;;10.70;99.90;;;;;;5010660;28;20643;-88
2022/04/06 12:02:54;;;;;;;18.90;10.63;;;10.60;99.90;;;;;;5012375;28;20202;-87
2022/04/06 12:05:23;;;;;;;15.23;9.00;;;10.60;99.90;;;;;;5017797;28;20680;-86
2022/04/06 12:08:12;;;;;;;12.37;8.27;;;10.60;99.90;;;;;;5018084;28;20214;-88
2022/04/06 12:10:51;;;;;;;17.93;8.20;;;10.70;99.90;;;;;;5007988;28;20198;-89
2022/04/06 12:13:20;;;;;;;17.03;11.07;;;10.60;99.90;;;;;;5012825;28;20755;-89
2022/04/06 12:15:48;;;;;;;21.23;10.23;;;10.50;99.90;;;;;;5006463;28;20238;-87
2022/04/06 12:18:19;;;;;;;15.80;9.13;;;10.60;99.90;;;;;;5006582;28;20245;-89
2022/04/06 12:20:48;;;;;;;16.67;10.30;;;10.50;99.90;;;;;;5013591;28;20520;-89
2022/04/06 12:23:17;;;;;;;15.50;9.70;;;10.70;99.90;;;;;;5015952;28;20242;-84
2022/04/06 12:25:44;;;;;;;13.27;8.90;;;10.70;99.90;;;;;;5022433;28;20213;-85
2022/04/06 12:28:14;;;;;;;15.90;9.23;;;10.70;99.90;;;;;;5014336;28;20199;-90
2022/04/06 12:30:51;;;;;;;13.07;8.73;;;10.70;99.90;;;;;;5014773;28;20209;-89
2022/04/06 12:33:44;;;;;;;13.77;8.83;;;10.70;99.90;;;;;;5006784;28;20203;-88
2022/04/06 12:36:19;;;;;;;14.83;9.03;;;10.70;99.90;;;;;;4997873;28;20714;-86
2022/04/06 12:39:08;;;;;;;14.27;8.80;;;10.80;99.90;;;;;;5008196;28;20447;-85
2022/04/06 12:41:53;;;;;;;11.93;8.70;;;10.80;99.90;;;;;;5009728;28;20693;-87
2022/04/06 12:44:20;;;;;;;14.23;8.23;;;10.80;99.90;;;;;;5009350;28;20545;-86
2022/04/06 12:46:48;;;;;;;16.13;8.37;;;11.00;99.90;;;;;;5005961;28;20230;-86
2022/04/06 12:49:35;;;;;;;15.40;8.63;;;11.00;99.90;;;;;;5009420;28;20203;-86
2022/04/06 12:52:12;;;;;;;15.13;8.07;;;11.10;99.90;;;;;;5001081;28;20710;-88
2022/04/06 12:54:41;;;;;;;12.50;7.97;;;11.10;99.90;;;;;;5011778;28;20201;-85
2022/04/06 12:57:20;;;;;;;13.83;8.60;;;11.10;99.90;;;;;;5008086;28;20222;-85
2022/04/06 12:59:50;;;;;;;19.93;8.87;;;11.10;99.90;;;;;;5016871;28;20236;-87
2022/04/06 13:02:21;;;;;;;12.83;8.23;;;11.10;99.90;;;;;;5005457;28;20203;-90
2022/04/06 13:04:48;;;;;;;13.13;8.90;;;11.10;99.90;;;;;;5001695;28;20678;-85
2022/04/06 13:07:15;;;;;;;15.70;9.00;;;11.10;99.90;;;;;;5002241;28;20596;-88